Time;durP1;ratioP1;P1;durP2;ratioP2;P2;SDS_P1;SDS_P2;PMS_P1;PMS_P2;Temp;Humidity;BMP_temperature;BMP_pressure;BME280_temperature;BME280_humidity;BME280_pressure;Samples;Min_cycle;Max_cycle;Signal;HPM_P1;HPM_P2
2021/03/02 00:00:27;;;;;;;15.15;7.28;;;;;;;1.36;100.00;97348.16;1016591;29;20024;-55
2021/03/02 00:00:58;;;;;;;13.00;6.03;;;;;;;1.38;100.00;97355.94;1016508;29;20034;-55
2021/03/02 00:01:28;;;;;;;14.27;6.53;;;;;;;1.45;100.00;97365.97;1024885;29;20460;-54
2021/03/02 00:02:00;;;;;;;11.20;5.68;;;;;;;1.44;100.00;97369.50;1024475;29;20558;-55
2021/03/02 00:02:31;;;;;;;12.32;6.20;;;;;;;1.42;100.00;97358.28;1028579;28;20030;-56
2021/03/02 00:03:02;;;;;;;12.25;6.68;;;;;;;1.43;100.00;97359.97;1024422;29;20038;-55
2021/03/02 00:03:33;;;;;;;15.63;6.78;;;;;;;1.42;100.00;97360.91;1028348;28;20026;-55
2021/03/02 00:04:04;;;;;;;15.82;6.47;;;;;;;1.43;100.00;97365.22;1020489;29;20024;-55
2021/03/02 00:04:35;;;;;;;13.50;7.10;;;;;;;1.41;100.00;97366.22;1020534;29;20397;-55
2021/03/02 00:05:07;;;;;;;16.40;6.85;;;;;;;1.35;100.00;97358.72;1020480;29;20020;-57
2021/03/02 00:05:37;;;;;;;14.00;6.75;;;;;;;1.38;100.00;97367.25;1016528;29;20020;-56
2021/03/02 00:06:08;;;;;;;15.75;7.28;;;;;;;1.36;100.00;97366.47;1012440;29;20111;-55
2021/03/02 00:06:39;;;;;;;14.15;6.93;;;;;;;1.36;100.00;97368.22;1020579;29;20035;-57
2021/03/02 00:07:13;;;;;;;14.75;6.70;;;;;;;1.37;100.00;97367.31;1012729;29;20020;-55
2021/03/02 00:07:43;;;;;;;13.18;6.97;;;;;;;1.25;100.00;97356.56;1020538;29;20016;-55
2021/03/02 00:08:14;;;;;;;17.33;7.22;;;;;;;1.30;100.00;97372.88;1020387;28;20032;-56
2021/03/02 00:08:45;;;;;;;16.77;7.10;;;;;;;1.29;100.00;97373.81;1024737;29;20592;-55
2021/03/02 00:09:16;;;;;;;13.68;6.15;;;;;;;1.30;100.00;97374.66;1028459;28;20015;-57
2021/03/02 00:09:46;;;;;;;12.93;6.93;;;;;;;1.30;100.00;97369.41;1024455;29;20050;-54
2021/03/02 00:10:17;;;;;;;12.63;6.47;;;;;;;1.29;100.00;97368.59;1016516;29;20016;-56
2021/03/02 00:10:48;;;;;;;15.23;6.70;;;;;;;1.28;100.00;97369.50;1016590;29;20027;-56
2021/03/02 00:11:19;;;;;;;10.23;6.32;;;;;;;1.27;100.00;97369.56;1020550;29;20090;-56
2021/03/02 00:11:50;;;;;;;13.68;7.03;;;;;;;1.26;100.00;97366.13;1020482;29;20091;-56
2021/03/02 00:12:20;;;;;;;14.35;6.88;;;;;;;1.26;100.00;97373.97;1012636;29;20525;-54
2021/03/02 00:12:51;;;;;;;13.13;6.45;;;;;;;1.22;100.00;97364.63;1012748;29;20036;-53
2021/03/02 00:13:23;;;;;;;12.13;6.30;;;;;;;1.25;100.00;97377.50;1016485;29;20046;-55
2021/03/02 00:13:54;;;;;;;14.93;6.68;;;;;;;1.26;100.00;97368.75;1016456;29;20084;-56
2021/03/02 00:14:25;;;;;;;13.73;6.82;;;;;;;1.24;100.00;97373.22;1020222;29;20071;-53
2021/03/02 00:14:56;;;;;;;14.23;6.45;;;;;;;1.22;100.00;97367.22;1016743;29;20107;-56
2021/03/02 00:15:26;;;;;;;14.15;6.57;;;;;;;1.22;100.00;97369.84;1016653;29;20016;-55
2021/03/02 00:16:01;;;;;;;13.73;6.63;;;;;;;1.21;100.00;97376.00;1020521;29;20298;-55
2021/03/02 00:16:32;;;;;;;11.70;6.70;;;;;;;1.21;100.00;97369.94;1020293;29;20071;-56
2021/03/02 00:17:06;;;;;;;13.63;6.70;;;;;;;1.20;100.00;97369.09;1024435;29;20162;-54
2021/03/02 00:17:47;;;;;;;10.75;5.95;;;;;;;1.15;100.00;97365.88;1020472;29;20417;-55
2021/03/02 00:18:19;;;;;;;12.40;6.10;;;;;;;1.18;100.00;97370.91;1020517;28;20031;-56
2021/03/02 00:18:55;;;;;;;14.57;6.70;;;;;;;1.15;100.00;97360.63;1020535;29;20118;-53
2021/03/02 00:19:31;;;;;;;11.48;6.45;;;;;;;1.13;100.00;97368.56;1012641;29;20400;-55
2021/03/02 00:20:12;;;;;;;12.18;6.60;;;;;;;1.12;100.00;97366.03;1016621;29;20024;-57
2021/03/02 00:20:43;;;;;;;15.18;6.72;;;;;;;1.10;100.00;97373.97;1020453;29;20111;-56
2021/03/02 00:21:17;;;;;;;15.20;6.50;;;;;;;1.08;100.00;97369.72;1012736;29;20032;-55
2021/03/02 00:21:49;;;;;;;12.52;5.80;;;;;;;1.08;100.00;97364.47;1020389;29;20075;-55
2021/03/02 00:22:23;;;;;;;12.10;5.95;;;;;;;0.97;100.00;97359.00;1020466;29;20023;-53
2021/03/02 00:23:04;;;;;;;16.15;7.45;;;;;;;1.02;100.00;97370.91;1016355;29;20109;-56
2021/03/02 00:23:35;;;;;;;16.13;6.18;;;;;;;1.04;100.00;97373.44;1012560;29;20550;-53
2021/03/02 00:24:09;;;;;;;10.90;6.57;;;;;;;1.05;100.00;97369.91;1016435;29;20106;-56
2021/03/02 00:24:40;;;;;;;13.65;6.88;;;;;;;1.05;100.00;97364.66;1020200;29;20505;-54
2021/03/02 00:25:12;;;;;;;17.00;7.20;;;;;;;1.03;100.00;97369.13;1020479;29;20052;-55
2021/03/02 00:25:44;;;;;;;12.10;6.55;;;;;;;1.02;100.00;97367.44;1016480;29;20146;-56
2021/03/02 00:26:18;;;;;;;12.10;6.47;;;;;;;1.03;100.00;97364.75;1020735;29;20023;-57
2021/03/02 00:26:53;;;;;;;16.55;7.40;;;;;;;0.91;100.00;97352.31;1020313;29;20032;-55
2021/03/02 00:27:23;;;;;;;12.70;6.68;;;;;;;0.98;100.00;97364.16;1020523;29;20023;-56
2021/03/02 00:27:54;;;;;;;13.77;6.32;;;;;;;0.94;100.00;97366.09;1020513;29;20489;-57
2021/03/02 00:28:26;;;;;;;14.00;6.75;;;;;;;0.97;100.00;97372.06;1020552;29;20144;-54
2021/03/02 00:28:57;;;;;;;13.45;6.68;;;;;;;0.96;100.00;97367.75;1016483;29;20028;-56
2021/03/02 00:29:28;;;;;;;16.83;7.50;;;;;;;0.95;100.00;97374.75;1024398;29;20593;-56
2021/03/02 00:29:58;;;;;;;11.93;6.60;;;;;;;0.96;100.00;97366.00;1028504;28;20104;-58
2021/03/02 00:30:30;;;;;;;14.88;6.90;;;;;;;0.96;100.00;97373.84;1016594;29;20509;-56
2021/03/02 00:31:01;;;;;;;14.10;7.13;;;;;;;0.93;100.00;97367.00;1020497;29;20020;-56
2021/03/02 00:31:32;;;;;;;14.80;7.75;;;;;;;0.89;100.00;97362.03;1024398;29;20019;-55
2021/03/02 00:32:03;;;;;;;13.68;6.28;;;;;;;0.90;100.00;97374.16;1016662;29;20114;-56
2021/03/02 00:32:33;;;;;;;15.93;6.85;;;;;;;0.92;100.00;97364.47;1012723;29;20478;-55
2021/03/02 00:33:05;;;;;;;16.00;7.13;;;;;;;0.92;100.00;97375.78;1016482;29;20027;-56
2021/03/02 00:33:35;;;;;;;15.00;7.43;;;;;;;0.92;100.00;97375.78;1028335;28;20023;-54
2021/03/02 00:34:06;;;;;;;13.77;7.10;;;;;;;0.88;100.00;97368.16;1028543;28;20093;-55
2021/03/02 00:34:37;;;;;;;16.63;6.63;;;;;;;0.92;100.00;97377.53;1028378;28;20025;-55
2021/03/02 00:35:09;;;;;;;13.75;6.57;;;;;;;0.90;100.00;97377.63;1020523;29;20019;-55
2021/03/02 00:35:40;;;;;;;14.93;7.07;;;;;;;0.86;100.00;97370.88;1028512;28;20050;-55
2021/03/02 00:36:11;;;;;;;18.27;7.00;;;;;;;0.90;100.00;97375.00;1024961;29;20504;-57
2021/03/02 00:36:42;;;;;;;10.25;6.10;;;;;;;0.88;100.00;97379.47;1026284;29;20015;-55
2021/03/02 00:37:12;;;;;;;12.23;6.13;;;;;;;0.88;100.00;97373.41;1027163;28;20058;-55
2021/03/02 00:37:47;;;;;;;12.63;6.85;;;;;;;0.85;100.00;97374.38;1027344;29;20020;-56
2021/03/02 00:38:18;;;;;;;13.20;7.05;;;;;;;0.84;100.00;97374.50;1027241;29;20047;-56
2021/03/02 00:38:49;;;;;;;17.40;6.80;;;;;;;0.82;100.00;97371.97;1023549;29;20111;-57
2021/03/02 00:39:19;;;;;;;16.63;6.78;;;;;;;0.77;100.00;97367.88;1023649;29;20016;-55
2021/03/02 00:39:50;;;;;;;17.67;7.68;;;;;;;0.80;100.00;97375.56;1019802;29;20026;-55
2021/03/02 00:40:20;;;;;;;12.88;6.82;;;;;;;0.78;100.00;97370.41;1023829;29;20023;-55
2021/03/02 00:40:51;;;;;;;14.05;6.47;;;;;;;0.77;100.00;97376.59;1027860;29;20027;-55
2021/03/02 00:41:22;;;;;;;18.65;7.78;;;;;;;0.74;100.00;97374.97;1027657;29;20078;-56
2021/03/02 00:41:53;;;;;;;13.82;7.55;;;;;;;0.75;100.00;97383.66;1023716;29;20059;-55
2021/03/02 00:42:23;;;;;;;15.27;7.38;;;;;;;0.73;100.00;97380.25;1018372;29;20083;-55
2021/03/02 00:42:54;;;;;;;14.48;6.53;;;;;;;0.68;100.00;97372.69;1020370;29;20031;-56
2021/03/02 00:43:25;;;;;;;13.57;7.35;;;;;;;0.71;100.00;97382.13;1032243;28;20415;-54
2021/03/02 00:43:57;;;;;;;13.88;6.75;;;;;;;0.70;100.00;97376.06;1024190;28;20020;-56
2021/03/02 00:44:28;;;;;;;13.35;7.30;;;;;;;0.69;100.00;97378.75;1016402;29;20498;-55
2021/03/02 00:44:59;;;;;;;15.38;6.80;;;;;;;0.68;100.00;97383.13;1024395;29;20050;-56
2021/03/02 00:45:29;;;;;;;17.60;7.55;;;;;;;0.67;100.00;97380.59;1020459;29;20474;-57
2021/03/02 00:46:00;;;;;;;13.85;6.88;;;;;;;0.64;100.00;97375.50;1020356;29;20012;-56
2021/03/02 00:46:31;;;;;;;16.33;7.72;;;;;;;0.64;100.00;97380.75;1016473;29;20012;-56
2021/03/02 00:47:01;;;;;;;12.75;6.47;;;;;;;0.54;100.00;97365.53;1024325;29;20162;-55
2021/03/02 00:47:33;;;;;;;15.60;6.82;;;;;;;0.62;100.00;97377.38;1020369;29;20016;-53
2021/03/02 00:48:04;;;;;;;15.15;7.13;;;;;;;0.60;100.00;97376.59;1024433;29;20494;-59
2021/03/02 00:48:34;;;;;;;15.07;6.90;;;;;;;0.60;100.00;97380.06;1024568;29;20012;-55
2021/03/02 00:49:05;;;;;;;12.55;6.85;;;;;;;0.60;100.00;97379.22;1020432;29;20016;-56
2021/03/02 00:49:36;;;;;;;14.02;6.97;;;;;;;0.56;100.00;97376.75;1016562;29;20533;-55
2021/03/02 00:50:07;;;;;;;15.68;6.90;;;;;;;0.55;100.00;97372.44;1016479;29;20021;-55
2021/03/02 00:50:38;;;;;;;13.02;6.75;;;;;;;0.55;100.00;97374.22;1024436;29;20066;-55
2021/03/02 00:51:09;;;;;;;13.93;7.00;;;;;;;0.54;100.00;97376.00;1024501;29;20042;-55
2021/03/02 00:51:40;;;;;;;16.77;6.80;;;;;;;0.54;100.00;97373.38;1024310;28;20011;-55
2021/03/02 00:52:11;;;;;;;11.85;6.20;;;;;;;0.54;100.00;97367.28;1024251;29;20460;-56
2021/03/02 00:52:41;;;;;;;10.88;6.20;;;;;;;0.53;100.00;97368.22;1020367;29;20008;-56
2021/03/02 00:53:12;;;;;;;13.75;6.97;;;;;;;0.51;100.00;97372.69;1020358;29;20466;-55
2021/03/02 00:53:43;;;;;;;14.02;7.00;;;;;;;0.50;100.00;97369.22;1020087;29;20123;-54
2021/03/02 00:54:13;;;;;;;16.98;7.45;;;;;;;0.50;100.00;97364.00;1016365;29;20028;-57
2021/03/02 00:54:44;;;;;;;16.17;7.85;;;;;;;0.50;100.00;97368.38;1020189;29;20043;-57
2021/03/02 00:55:15;;;;;;;16.15;7.70;;;;;;;0.50;100.00;97366.59;1024423;28;20573;-55
2021/03/02 00:55:46;;;;;;;14.23;7.15;;;;;;;0.50;100.00;97366.59;1020321;29;20011;-55
2021/03/02 00:56:16;;;;;;;14.63;6.95;;;;;;;0.51;100.00;97375.31;1016264;29;20024;-55
2021/03/02 00:56:47;;;;;;;14.07;7.20;;;;;;;0.50;100.00;97364.00;1020330;29;20080;-54
2021/03/02 00:57:18;;;;;;;16.55;7.47;;;;;;;0.52;100.00;97366.53;1020305;29;20026;-56
2021/03/02 00:57:48;;;;;;;14.75;6.88;;;;;;;0.40;100.00;97352.34;1024280;29;20025;-55
2021/03/02 00:58:19;;;;;;;14.93;7.00;;;;;;;0.52;100.00;97370.00;1020140;29;20020;-56
2021/03/02 00:58:50;;;;;;;13.25;6.80;;;;;;;0.52;100.00;97366.53;1020275;29;20430;-56
2021/03/02 00:59:20;;;;;;;16.15;6.57;;;;;;;0.50;100.00;97366.59;1024236;29;20058;-55
2021/03/02 00:59:51;;;;;;;13.30;7.15;;;;;;;0.51;100.00;97370.91;1016431;29;20075;-55
2021/03/02 01:00:23;;;;;;;16.50;7.47;;;;;;;0.49;100.00;97364.94;1020169;29;20127;-57
2021/03/02 01:00:53;;;;;;;13.73;7.15;;;;;;;0.49;100.00;97364.09;1020372;29;20043;-53
2021/03/02 01:01:24;;;;;;;12.95;6.82;;;;;;;0.49;100.00;97370.16;1024384;29;20016;-56
2021/03/02 01:01:55;;;;;;;12.95;6.28;;;;;;;0.50;100.00;97365.78;1024229;29;20016;-54
2021/03/02 01:02:25;;;;;;;12.55;6.88;;;;;;;0.48;100.00;97365.84;1016193;29;20016;-55
2021/03/02 01:02:56;;;;;;;13.25;6.78;;;;;;;0.50;100.00;97363.16;1020204;29;20059;-55
2021/03/02 01:03:27;;;;;;;13.57;6.93;;;;;;;0.50;100.00;97365.78;1024118;29;20018;-55
2021/03/02 01:03:57;;;;;;;11.80;6.25;;;;;;;0.50;100.00;97368.38;1023892;29;20461;-56
2021/03/02 01:04:28;;;;;;;13.80;6.88;;;;;;;0.49;100.00;97372.78;1024046;29;20027;-55
2021/03/02 01:04:59;;;;;;;16.23;6.88;;;;;;;0.46;100.00;97365.09;1024271;29;20126;-54
2021/03/02 01:05:30;;;;;;;13.98;7.05;;;;;;;0.43;100.00;97364.41;1028206;28;20073;-54
2021/03/02 01:06:01;;;;;;;14.60;7.68;;;;;;;0.43;100.00;97362.63;1024222;29;20020;-54
2021/03/02 01:06:31;;;;;;;12.52;6.93;;;;;;;0.43;100.00;97369.63;1020075;29;20087;-55
2021/03/02 01:07:03;;;;;;;14.73;6.95;;;;;;;0.41;100.00;97361.84;1024264;29;20061;-57
2021/03/02 01:07:34;;;;;;;14.00;6.75;;;;;;;0.42;100.00;97362.69;1020216;29;20394;-54
2021/03/02 01:08:05;;;;;;;12.57;6.47;;;;;;;0.40;100.00;97368.03;1028261;28;20022;-55
2021/03/02 01:08:35;;;;;;;18.83;7.75;;;;;;;0.31;100.00;97350.19;1024036;28;20496;-54
2021/03/02 01:09:08;;;;;;;14.57;7.28;;;;;;;0.41;100.00;97366.25;1024277;29;20487;-57
2021/03/02 01:09:38;;;;;;;15.90;7.25;;;;;;;0.40;100.00;97361.94;1020161;29;20474;-56
2021/03/02 01:10:10;;;;;;;12.57;6.15;;;;;;;0.39;100.00;97366.31;1016385;29;20047;-55
2021/03/02 01:10:41;;;;;;;12.48;6.80;;;;;;;0.39;100.00;97363.72;1016737;29;20024;-56
2021/03/02 01:11:11;;;;;;;15.55;7.38;;;;;;;0.41;100.00;97367.09;1024206;29;20406;-55
2021/03/02 01:11:42;;;;;;;13.40;7.10;;;;;;;0.43;100.00;97361.78;1024235;29;20114;-56
2021/03/02 01:12:13;;;;;;;16.98;6.82;;;;;;;0.40;100.00;97362.81;1012434;29;20020;-55
2021/03/02 01:12:43;;;;;;;15.05;6.70;;;;;;;0.46;100.00;97361.63;1020072;29;20046;-54
2021/03/02 01:13:14;;;;;;;16.30;7.82;;;;;;;0.45;100.00;97363.38;1020197;29;20034;-57
2021/03/02 01:13:45;;;;;;;16.30;7.70;;;;;;;0.42;100.00;97357.47;1023981;29;20102;-54
2021/03/02 01:14:16;;;;;;;13.52;7.10;;;;;;;0.48;100.00;97363.22;1020209;29;20107;-55
2021/03/02 01:14:46;;;;;;;12.45;7.20;;;;;;;0.48;100.00;97373.69;1020095;29;20482;-54
2021/03/02 01:15:17;;;;;;;16.80;8.00;;;;;;;0.48;100.00;97359.78;1016260;29;20024;-56
2021/03/02 01:15:48;;;;;;;14.95;7.18;;;;;;;0.44;100.00;97358.25;1024192;29;20616;-55
2021/03/02 01:16:18;;;;;;;13.85;7.75;;;;;;;0.48;100.00;97357.16;1024266;29;20019;-57
2021/03/02 01:16:49;;;;;;;14.05;7.00;;;;;;;0.47;100.00;97358.94;1020172;29;20019;-55
2021/03/02 01:17:21;;;;;;;18.85;8.15;;;;;;;0.50;100.00;97355.31;1016324;29;20020;-54
2021/03/02 01:17:51;;;;;;;17.25;6.95;;;;;;;0.53;100.00;97361.22;1020291;29;20473;-55
2021/03/02 01:18:22;;;;;;;16.08;7.68;;;;;;;0.53;100.00;97360.41;1016465;29;20282;-55
2021/03/02 01:18:53;;;;;;;12.07;6.72;;;;;;;0.51;100.00;97357.84;1024125;29;20083;-56
2021/03/02 01:19:24;;;;;;;15.40;7.65;;;;;;;0.51;100.00;97363.09;1024111;29;20019;-56
2021/03/02 01:19:54;;;;;;;16.27;8.10;;;;;;;0.57;100.00;97364.53;1024353;28;20026;-56
2021/03/02 01:20:25;;;;;;;15.93;8.68;;;;;;;0.56;100.00;97366.31;1012531;29;20044;-55
2021/03/02 01:20:56;;;;;;;13.63;7.22;;;;;;;0.53;100.00;97353.38;1020161;29;20027;-55
2021/03/02 01:21:27;;;;;;;14.90;6.53;;;;;;;0.59;100.00;97359.22;1024257;29;20023;-56
2021/03/02 01:21:57;;;;;;;15.65;7.57;;;;;;;0.58;100.00;97358.38;1024438;29;20027;-54
2021/03/02 01:22:28;;;;;;;17.17;7.68;;;;;;;0.60;100.00;97353.91;1016529;29;20484;-56
2021/03/02 01:22:59;;;;;;;16.05;8.40;;;;;;;0.63;100.00;97360.75;1026177;29;20035;-57
2021/03/02 01:23:30;;;;;;;16.33;8.32;;;;;;;0.64;100.00;97358.06;1021911;29;20028;-54
2021/03/02 01:24:00;;;;;;;17.17;8.18;;;;;;;0.64;100.00;97359.84;1030067;28;20019;-55
2021/03/02 01:24:31;;;;;;;15.85;7.63;;;;;;;0.64;100.00;97354.59;1021930;28;20020;-56
2021/03/02 01:25:04;;;;;;;15.32;8.10;;;;;;;0.64;100.00;97365.91;1026308;28;20082;-55
2021/03/02 01:25:35;;;;;;;16.90;8.25;;;;;;;0.63;100.00;97355.50;1022305;29;20027;-57
2021/03/02 01:26:06;;;;;;;17.20;8.25;;;;;;;0.66;100.00;97355.38;1021965;29;20122;-56
2021/03/02 01:26:36;;;;;;;17.20;8.73;;;;;;;0.67;100.00;97357.06;1022104;29;20107;-55
2021/03/02 01:27:07;;;;;;;16.63;7.97;;;;;;;0.65;100.00;97354.53;1018456;29;20048;-57
2021/03/02 01:27:39;;;;;;;17.20;8.48;;;;;;;0.64;100.00;97355.44;1018166;29;20114;-55
2021/03/02 01:28:10;;;;;;;14.98;7.85;;;;;;;0.64;100.00;97355.44;1022270;29;20012;-55
2021/03/02 01:28:41;;;;;;;18.50;8.70;;;;;;;0.64;100.00;97360.66;1018299;29;20043;-56
2021/03/02 01:29:11;;;;;;;15.80;7.55;;;;;;;0.64;100.00;97357.22;1029825;28;20045;-56
2021/03/02 01:29:42;;;;;;;16.40;8.52;;;;;;;0.59;100.00;97347.00;1030329;28;20019;-54
2021/03/02 01:30:14;;;;;;;18.85;8.82;;;;;;;0.66;100.00;97356.22;1022218;29;20019;-57
2021/03/02 01:30:45;;;;;;;15.05;8.30;;;;;;;0.66;100.00;97364.06;1026342;29;20020;-54
2021/03/02 01:31:15;;;;;;;17.33;7.95;;;;;;;0.66;100.00;97358.84;1034009;28;20018;-56
2021/03/02 01:31:47;;;;;;;18.05;8.60;;;;;;;0.66;100.00;97357.97;1026457;29;20019;-55
2021/03/02 01:32:17;;;;;;;18.63;9.05;;;;;;;0.68;100.00;97356.13;1018262;29;20035;-56
2021/03/02 01:32:48;;;;;;;15.77;8.85;;;;;;;0.68;100.00;97350.91;1021901;29;20020;-56
2021/03/02 01:33:19;;;;;;;17.42;8.82;;;;;;;0.68;100.00;97356.13;1016389;29;20402;-56
2021/03/02 01:33:50;;;;;;;18.67;9.00;;;;;;;0.60;100.00;97340.00;1015927;29;20371;-56
2021/03/02 01:34:20;;;;;;;18.05;8.75;;;;;;;0.70;100.00;97354.31;1020180;29;20020;-56
2021/03/02 01:34:52;;;;;;;16.23;8.75;;;;;;;0.72;100.00;97352.44;1023974;29;20026;-55
2021/03/02 01:35:22;;;;;;;21.30;10.73;;;;;;;0.72;100.00;97355.91;1024192;29;20039;-56
2021/03/02 01:35:53;;;;;;;18.23;9.88;;;;;;;0.78;100.00;97357.34;1028016;28;20023;-55
2021/03/02 01:36:24;;;;;;;20.45;10.02;;;;;;;0.77;100.00;97341.72;1028200;28;20062;-55
2021/03/02 01:36:55;;;;;;;19.95;9.30;;;;;;;0.84;100.00;97358.81;1024119;29;20031;-57
2021/03/02 01:37:26;;;;;;;20.10;9.65;;;;;;;0.78;100.00;97346.88;1016313;29;20047;-58
2021/03/02 01:37:56;;;;;;;16.65;8.98;;;;;;;0.82;100.00;97355.41;1019968;29;20116;-55
2021/03/02 01:38:27;;;;;;;16.73;8.93;;;;;;;0.82;100.00;97358.88;1020128;29;20108;-55
2021/03/02 01:38:58;;;;;;;23.92;9.93;;;;;;;0.82;100.00;97363.25;1020176;29;20023;-56
2021/03/02 01:39:29;;;;;;;19.80;9.15;;;;;;;0.84;100.00;97364.88;1020166;29;20012;-54
2021/03/02 01:40:01;;;;;;;22.67;11.00;;;;;;;0.83;100.00;97355.31;1024110;29;20155;-51
2021/03/02 01:40:32;;;;;;;19.85;9.80;;;;;;;0.74;100.00;97340.13;1020128;29;20015;-55
2021/03/02 01:41:03;;;;;;;18.60;9.82;;;;;;;0.84;100.00;97350.97;1028052;28;20469;-54
2021/03/02 01:41:34;;;;;;;20.58;10.13;;;;;;;0.84;100.00;97359.66;1024037;28;20457;-56
2021/03/02 01:42:04;;;;;;;22.17;9.90;;;;;;;0.85;100.00;97350.84;1024042;29;20110;-56
2021/03/02 01:42:35;;;;;;;20.45;9.77;;;;;;;0.86;100.00;97351.72;1024011;29;20026;-55
2021/03/02 01:43:06;;;;;;;19.83;9.18;;;;;;;0.87;100.00;97356.88;1020010;28;20437;-55
2021/03/02 01:43:37;;;;;;;21.25;10.43;;;;;;;0.89;100.00;97357.63;1027875;28;20033;-54
2021/03/02 01:44:08;;;;;;;16.42;9.02;;;;;;;0.88;100.00;97353.31;1027914;28;20066;-55
2021/03/02 01:44:39;;;;;;;20.35;10.05;;;;;;;0.87;100.00;97356.88;1020178;29;20524;-56
2021/03/02 01:45:11;;;;;;;21.17;9.43;;;;;;;0.86;100.00;97355.19;1020097;29;20031;-55
2021/03/02 01:45:42;;;;;;;19.55;9.25;;;;;;;0.84;100.00;97351.81;1020126;29;20028;-55
2021/03/02 01:46:12;;;;;;;19.85;9.32;;;;;;;0.85;100.00;97357.88;1015992;29;20035;-55
2021/03/02 01:46:43;;;;;;;17.52;9.88;;;;;;;0.83;100.00;97357.94;1016241;29;20099;-55
2021/03/02 01:47:14;;;;;;;25.77;10.40;;;;;;;0.84;100.00;97351.81;1024061;28;20030;-56
2021/03/02 01:47:48;;;;;;;16.17;8.20;;;;;;;0.85;100.00;97357.88;1028072;28;20434;-55
2021/03/02 01:48:18;;;;;;;21.85;9.10;;;;;;;0.81;100.00;97357.19;1027890;28;20121;-56
2021/03/02 01:48:49;;;;;;;18.73;9.82;;;;;;;0.76;100.00;97356.56;1016209;29;20028;-55
2021/03/02 01:49:20;;;;;;;16.70;10.15;;;;;;;0.77;100.00;97366.13;1020085;29;20020;-55
2021/03/02 01:49:51;;;;;;;17.33;9.30;;;;;;;0.78;100.00;97361.72;1023989;29;20062;-54
2021/03/02 01:50:22;;;;;;;20.00;8.93;;;;;;;0.78;100.00;97362.56;1020185;29;20057;-56
2021/03/02 01:50:53;;;;;;;19.52;9.85;;;;;;;0.75;100.00;97370.59;1024130;28;20019;-54
2021/03/02 01:51:24;;;;;;;21.60;10.38;;;;;;;0.72;100.00;97366.34;1024079;28;20081;-55
2021/03/02 01:51:54;;;;;;;20.17;9.98;;;;;;;0.70;100.00;97368.22;1020139;29;20043;-55
2021/03/02 01:52:25;;;;;;;17.00;9.57;;;;;;;0.66;100.00;97365.81;1020001;29;20026;-56
2021/03/02 01:52:56;;;;;;;23.67;11.82;;;;;;;0.64;100.00;97367.69;1016186;29;20063;-57
2021/03/02 01:53:27;;;;;;;27.95;11.07;;;;;;;0.62;100.00;97365.13;1019998;29;20397;-55
2021/03/02 01:53:58;;;;;;;19.60;9.73;;;;;;;0.61;100.00;97368.69;1019991;29;20490;-56
2021/03/02 01:54:29;;;;;;;19.35;9.95;;;;;;;0.62;100.00;97367.75;1019697;29;20023;-55
2021/03/02 01:55:00;;;;;;;18.77;10.35;;;;;;;0.61;100.00;97367.81;1020204;29;20110;-55
2021/03/02 01:55:31;;;;;;;20.90;10.77;;;;;;;0.58;100.00;97366.22;1016092;29;20159;-56
2021/03/02 01:56:02;;;;;;;23.90;11.23;;;;;;;0.59;100.00;97373.13;1024117;29;20497;-56
2021/03/02 01:56:33;;;;;;;25.65;11.18;;;;;;;0.58;100.00;97361.00;1031915;28;20011;-55
2021/03/02 01:57:04;;;;;;;21.48;10.13;;;;;;;0.61;100.00;97360.84;1024040;28;20015;-51
2021/03/02 01:57:35;;;;;;;22.02;11.18;;;;;;;0.62;100.00;97366.91;1028034;28;20174;-55
2021/03/02 01:58:06;;;;;;;20.73;11.20;;;;;;;0.60;100.00;97369.59;1028008;28;20018;-57
2021/03/02 01:58:37;;;;;;;21.33;10.65;;;;;;;0.59;100.00;97370.50;1015998;29;20106;-55
2021/03/02 01:59:08;;;;;;;26.52;11.18;;;;;;;0.60;100.00;97369.59;1027958;28;20070;-54
2021/03/02 01:59:39;;;;;;;21.65;11.60;;;;;;;0.58;100.00;97370.63;1023990;29;20039;-55
2021/03/02 02:00:24;;;;;;;23.17;11.35;;;;;;;0.54;100.00;97369.91;1020111;28;20020;-54
2021/03/02 02:00:56;;;;;;;22.27;11.30;;;;;;;0.54;100.00;97370.78;1023909;29;20030;-56
2021/03/02 02:01:27;;;;;;;24.20;10.45;;;;;;;0.53;100.00;97366.47;1020069;28;20043;-55
2021/03/02 02:01:58;;;;;;;32.42;11.82;;;;;;;0.54;100.00;97373.38;1027934;28;20415;-55
2021/03/02 02:02:42;;;;;;;26.13;10.95;;;;;;;0.54;100.00;97365.53;1020016;28;20381;-57
2021/03/02 02:03:29;;;;;;;23.08;11.07;;;;;;;0.48;100.00;97363.22;1016075;29;20036;-56
2021/03/02 02:04:10;;;;;;;20.85;9.65;;;;;;;0.51;100.00;97368.31;1016062;29;20024;-55
2021/03/02 02:04:45;;;;;;;25.48;11.07;;;;;;;0.52;100.00;97367.41;1023839;29;20110;-55
2021/03/02 02:05:16;;;;;;;20.33;10.10;;;;;;;0.52;100.00;97366.53;1028021;28;20094;-55
2021/03/02 02:05:48;;;;;;;21.63;11.68;;;;;;;0.50;100.00;97363.16;1018149;29;20020;-55
2021/03/02 02:06:30;;;;;;;23.73;11.50;;;;;;;0.50;100.00;97366.59;1016186;29;20083;-55
2021/03/02 02:07:05;;;;;;;24.05;12.00;;;;;;;0.49;100.00;97364.09;1023888;29;20030;-57
2021/03/02 02:07:37;;;;;;;19.52;10.50;;;;;;;0.48;100.00;97365.00;1020054;29;20024;-55
2021/03/02 02:08:08;;;;;;;23.10;11.38;;;;;;;0.48;100.00;97365.84;1026337;28;20023;-55
2021/03/02 02:08:49;;;;;;;20.95;10.57;;;;;;;0.50;100.00;97368.38;1023989;29;20031;-56
2021/03/02 02:09:31;;;;;;;22.50;11.30;;;;;;;0.40;100.00;97356.69;1023954;29;20080;-56
2021/03/02 02:10:21;;;;;;;25.00;11.80;;;;;;;0.45;100.00;97368.59;1024111;29;20023;-56
2021/03/02 02:11:00;;;;;;;25.58;11.88;;;;;;;0.43;100.00;97365.22;1023865;29;20027;-54
2021/03/02 02:11:33;;;;;;;;;;;;;;;0.41;100.00;97366.25;1028424;28;20026;-56
2021/03/02 02:12:24;;;;;;;23.40;10.70;;;;;;;0.34;100.00;97363.09;1023945;29;19910;-55
2021/03/02 02:13:02;;;;;;;23.63;10.30;;;;;;;0.38;100.00;97372.47;1016166;29;20032;-55
2021/03/02 02:13:36;;;;;;;27.92;12.18;;;;;;;0.35;100.00;97370.84;1015874;29;20122;-55
2021/03/02 02:14:11;;;;;;;31.05;11.90;;;;;;;0.33;100.00;97366.63;1020001;29;20525;-56
2021/03/02 02:14:52;;;;;;;25.85;11.98;;;;;;;0.30;100.00;97366.78;1019877;29;20023;-56
2021/03/02 02:15:26;;;;;;;27.15;12.50;;;;;;;0.29;100.00;97365.94;1015999;29;20063;-55
2021/03/02 02:15:58;;;;;;;28.63;11.85;;;;;;;0.28;100.00;97369.47;1018545;29;20088;-55
2021/03/02 02:16:28;;;;;;;23.63;11.27;;;;;;;0.27;100.00;97366.94;1018227;29;20024;-55
2021/03/02 02:16:59;;;;;;;21.50;11.25;;;;;;;0.26;100.00;97366.09;1020004;29;20409;-57
2021/03/02 02:17:41;;;;;;;21.58;10.40;;;;;;;0.26;100.00;97375.69;1023831;29;20472;-55
2021/03/02 02:18:14;;;;;;;21.33;10.82;;;;;;;0.26;100.00;97362.63;1024068;29;20473;-54
2021/03/02 02:18:45;;;;;;;19.63;10.90;;;;;;;0.20;100.00;97357.72;1023990;29;20019;-54
2021/03/02 02:19:22;;;;;;;24.65;11.77;;;;;;;0.24;100.00;97367.94;1027869;28;20423;-55
2021/03/02 02:19:54;;;;;;;25.67;11.10;;;;;;;0.25;100.00;97372.25;1023976;29;20027;-57
2021/03/02 02:20:34;;;;;;;20.35;11.23;;;;;;;0.26;100.00;97371.34;1019531;29;20027;-56
2021/03/02 02:21:07;;;;;;;23.85;11.02;;;;;;;0.26;100.00;97373.06;1016086;29;20091;-55
2021/03/02 02:21:44;;;;;;;24.58;12.20;;;;;;;0.27;100.00;97366.94;1023793;29;20023;-56
2021/03/02 02:22:24;;;;;;;22.63;10.90;;;;;;;0.30;100.00;97369.41;1019978;29;20520;-54
2021/03/02 02:23:07;;;;;;;20.92;10.73;;;;;;;0.29;100.00;97365.09;1020027;29;20516;-55
2021/03/02 02:23:44;;;;;;;27.17;11.68;;;;;;;0.27;100.00;97366.94;1023456;29;20019;-52
2021/03/02 02:24:23;;;;;;;20.08;11.40;;;;;;;0.27;100.00;97361.72;1019979;29;20510;-54
2021/03/02 02:25:02;;;;;;;26.08;11.20;;;;;;;0.30;100.00;97369.41;1020003;29;20016;-55
2021/03/02 02:25:52;;;;;;;24.92;11.35;;;;;;;0.30;100.00;97372.03;1023841;29;20062;-56
2021/03/02 02:26:32;;;;;;;24.25;11.55;;;;;;;0.32;100.00;97371.00;1016048;29;20020;-56
2021/03/02 02:27:03;;;;;;;21.20;10.63;;;;;;;0.32;100.00;97363.16;1020127;29;20011;-56
2021/03/02 02:27:34;;;;;;;21.73;12.05;;;;;;;0.32;100.00;97359.72;1023901;29;20015;-56
2021/03/02 02:28:05;;;;;;;24.02;12.50;;;;;;;0.32;100.00;97363.16;1019961;29;20012;-54
2021/03/02 02:28:36;;;;;;;21.48;10.63;;;;;;;0.33;100.00;97361.38;1027874;28;20021;-56
2021/03/02 02:29:07;;;;;;;28.23;12.20;;;;;;;0.32;100.00;97360.56;1023872;29;20016;-55
2021/03/02 02:29:37;;;;;;;27.05;13.13;;;;;;;0.33;100.00;97353.56;1031927;28;20010;-58